createdAt,value
2022-08-19T00:01:10.713Z,20.55
2022-08-19T00:06:13.800Z,20.60
2022-08-19T00:11:25.458Z,20.41
2022-08-19T00:16:30.560Z,20.37
2022-08-19T00:21:33.787Z,20.48
2022-08-19T00:26:37.993Z,20.50
2022-08-19T00:31:44.356Z,20.37
2022-08-19T00:36:47.792Z,20.09
2022-08-19T00:41:52.090Z,20.25
2022-08-19T00:46:59.954Z,20.15
2022-08-19T00:52:09.484Z,20.01
2022-08-19T00:57:17.688Z,20.04
2022-08-19T01:02:22.260Z,19.95
2022-08-19T01:07:26.748Z,19.91
2022-08-19T01:12:31.887Z,19.85
2022-08-19T01:17:38.498Z,19.85
2022-08-19T01:22:47.230Z,19.95
2022-08-19T01:27:53.386Z,19.96
2022-08-19T01:32:57.221Z,19.92
2022-08-19T01:38:09.350Z,19.67
2022-08-19T01:43:12.561Z,19.75
2022-08-19T01:48:16.528Z,19.72
2022-08-19T01:53:20.989Z,19.87
2022-08-19T01:58:33.487Z,19.81
2022-08-19T02:03:36.748Z,19.76
2022-08-19T02:08:41.931Z,19.86
2022-08-19T02:13:45.067Z,19.40
2022-08-19T02:18:49.617Z,19.67
2022-08-19T02:23:54.685Z,19.82
2022-08-19T02:28:58.244Z,19.88
2022-08-19T02:34:03.202Z,19.73
2022-08-19T02:39:07.675Z,19.84
2022-08-19T02:44:29.448Z,19.84
2022-08-19T02:49:34.678Z,19.93
2022-08-19T02:54:39.608Z,19.81
2022-08-19T02:59:42.667Z,19.73
2022-08-19T03:04:45.778Z,19.75
2022-08-19T03:09:50.296Z,19.23
2022-08-19T03:14:53.833Z,19.25
2022-08-19T03:19:56.895Z,19.24
2022-08-19T03:25:01.756Z,19.08
2022-08-19T03:30:06.137Z,19.48
2022-08-19T03:35:10.137Z,19.59
2022-08-19T03:40:14.651Z,19.83
2022-08-19T03:45:20.586Z,19.65
2022-08-19T03:50:23.704Z,19.65
2022-08-19T03:55:28.177Z,19.79
2022-08-19T04:00:31.269Z,19.68
2022-08-19T04:05:34.365Z,19.81
2022-08-19T04:10:39.381Z,19.52
2022-08-19T04:15:43.110Z,19.71
2022-08-19T04:20:50.199Z,19.79
2022-08-19T04:25:54.653Z,19.60
2022-08-19T04:30:58.487Z,19.46
2022-08-19T04:36:01.571Z,19.68
2022-08-19T04:41:23.595Z,19.72
2022-08-19T04:46:39.560Z,19.71
2022-08-19T04:51:45.391Z,19.84
2022-08-19T04:56:50.928Z,19.80
2022-08-19T05:01:53.981Z,19.85
2022-08-19T05:07:00.913Z,19.80
2022-08-19T05:12:06.898Z,19.62
2022-08-19T05:22:36.695Z,19.53
2022-08-19T05:27:41.271Z,19.58
2022-08-19T05:32:44.937Z,19.45
2022-08-19T05:37:47.997Z,19.53
2022-08-19T05:42:55.204Z,19.67
2022-08-19T05:47:59.330Z,19.63
2022-08-19T05:53:02.439Z,19.61
2022-08-19T05:58:08.658Z,19.53
2022-08-19T06:03:12.878Z,19.52
2022-08-19T06:08:19.488Z,19.41
2022-08-19T06:13:26.817Z,19.53
2022-08-19T06:18:36.350Z,19.60
2022-08-19T06:23:39.985Z,19.69
2022-08-19T06:28:47.559Z,19.71
2022-08-19T06:33:51.503Z,19.64
2022-08-19T06:38:55.674Z,19.66
2022-08-19T06:44:00.161Z,19.75
2022-08-19T06:49:03.866Z,19.83
2022-08-19T06:54:19.466Z,19.71
2022-08-19T06:59:28.194Z,19.76
2022-08-19T07:04:33.399Z,19.87
2022-08-19T07:09:38.531Z,19.61
2022-08-19T07:14:43.776Z,19.53
2022-08-19T07:19:46.879Z,19.61
2022-08-19T07:24:51.155Z,19.74
2022-08-19T07:29:57.627Z,19.67
2022-08-19T07:35:04.443Z,19.62
2022-08-19T07:40:09.272Z,19.63
2022-08-19T07:45:13.972Z,19.65
2022-08-19T07:50:19.051Z,19.52
2022-08-19T07:55:41.944Z,19.56
2022-08-19T08:00:50.137Z,19.40
2022-08-19T08:06:22.130Z,19.41
2022-08-19T08:11:25.217Z,19.50
2022-08-19T08:16:39.714Z,19.61
2022-08-19T08:21:51.009Z,19.61
2022-08-19T08:26:57.602Z,19.66
2022-08-19T08:32:02.573Z,19.85
2022-08-19T08:37:05.871Z,19.88
2022-08-19T08:42:16.803Z,19.90
2022-08-19T08:47:23.910Z,19.93
2022-08-19T08:52:32.132Z,19.74
2022-08-19T08:57:42.475Z,19.64
2022-08-19T09:02:50.581Z,19.95
2022-08-19T09:08:02.805Z,20.08
2022-08-19T09:13:14.431Z,19.99
2022-08-19T09:18:19.804Z,20.19
2022-08-19T09:23:26.675Z,20.60
2022-08-19T09:28:30.315Z,20.97
2022-08-19T09:33:36.968Z,21.23
2022-08-19T09:38:43.688Z,21.43
2022-08-19T09:43:50.258Z,21.81
2022-08-19T09:48:55.771Z,21.64
2022-08-19T09:54:02.373Z,21.41
2022-08-19T09:59:08.292Z,21.33
2022-08-19T10:04:19.819Z,21.57
2022-08-19T10:09:33.848Z,21.57
2022-08-19T10:14:37.690Z,22.20
2022-08-19T10:19:43.789Z,22.39
2022-08-19T10:24:58.403Z,22.05
2022-08-19T10:30:02.291Z,21.63
2022-08-19T10:35:09.306Z,21.52
2022-08-19T10:40:13.086Z,21.81
2022-08-19T10:45:16.193Z,22.04
2022-08-19T10:50:38.362Z,22.39
2022-08-19T10:55:59.801Z,22.96
2022-08-19T11:01:03.155Z,22.69
2022-08-19T11:06:09.829Z,23.05
2022-08-19T11:11:13.443Z,21.98
2022-08-19T11:16:19.851Z,22.30
2022-08-19T11:21:26.722Z,22.73
2022-08-19T11:26:31.489Z,23.35
2022-08-19T11:31:38.213Z,23.62
2022-08-19T11:36:45.847Z,23.36
2022-08-19T11:41:50.125Z,23.50
2022-08-19T11:46:53.621Z,22.94
2022-08-19T11:51:59.347Z,22.17
2022-08-19T11:57:04.408Z,22.23
2022-08-19T12:02:07.995Z,22.67
2022-08-19T12:07:12.527Z,22.65
2022-08-19T12:12:16.447Z,22.29
2022-08-19T12:17:19.907Z,21.43
2022-08-19T12:22:24.715Z,21.33
2022-08-19T12:27:40.020Z,21.52
2022-08-19T12:32:44.497Z,21.82
2022-08-19T12:37:56.630Z,21.38
2022-08-19T12:43:01.297Z,21.23
2022-08-19T12:48:32.957Z,21.11
2022-08-19T12:53:30.125Z,21.55
2022-08-19T12:58:35.462Z,21.10
2022-08-19T13:03:40.738Z,21.18
2022-08-19T13:08:45.248Z,21.46
2022-08-19T13:13:52.080Z,20.49
2022-08-19T13:18:56.847Z,20.30
2022-08-19T13:24:01.451Z,20.51
2022-08-19T13:29:21.993Z,20.85
2022-08-19T13:34:31.272Z,20.98
2022-08-19T13:39:36.819Z,20.54
2022-08-19T13:44:39.972Z,20.63
2022-08-19T13:49:44.546Z,20.87
2022-08-19T13:54:49.546Z,20.33
2022-08-19T13:59:52.607Z,20.51
2022-08-19T14:04:55.745Z,20.61
2022-08-19T14:10:03.743Z,20.90
2022-08-19T14:15:08.904Z,21.11
2022-08-19T14:20:17.734Z,21.27
2022-08-19T14:25:27.624Z,21.12
2022-08-19T14:30:33.271Z,21.26
2022-08-19T14:35:36.689Z,21.31
2022-08-19T14:40:43.017Z,21.39
2022-08-19T14:45:46.332Z,21.24
2022-08-19T14:50:50.090Z,20.18
2022-08-19T14:55:54.608Z,20.23
2022-08-19T15:00:58.612Z,20.58
2022-08-19T15:06:02.970Z,21.10
2022-08-19T15:11:11.673Z,21.06
2022-08-19T15:16:18.064Z,21.29
2022-08-19T15:21:26.855Z,21.39
2022-08-19T15:26:33.455Z,21.49
2022-08-19T15:31:38.151Z,21.42
2022-08-19T15:36:41.893Z,21.33
2022-08-19T15:41:46.786Z,20.90
2022-08-19T15:46:50.765Z,20.70
2022-08-19T15:51:54.244Z,20.49
2022-08-19T15:57:16.095Z,20.43
2022-08-19T16:02:38.950Z,20.62
2022-08-19T16:07:42.024Z,20.33
2022-08-19T16:12:46.583Z,20.69
2022-08-19T16:17:56.671Z,20.31
2022-08-19T16:23:01.016Z,20.81
2022-08-19T16:28:06.652Z,20.83
2022-08-19T16:33:11.340Z,20.30
2022-08-19T16:38:14.615Z,20.54
2022-08-19T16:43:19.716Z,20.40
2022-08-19T16:48:23.927Z,20.36
2022-08-19T16:53:29.314Z,20.25
2022-08-19T16:58:37.021Z,20.16
2022-08-19T17:03:40.627Z,20.43
2022-08-19T17:08:46.875Z,20.42
2022-08-19T17:13:53.788Z,20.12
2022-08-19T17:18:59.021Z,20.30
2022-08-19T17:24:03.460Z,20.10
2022-08-19T17:29:08.104Z,19.76
2022-08-19T17:34:11.168Z,19.79
2022-08-19T17:39:14.294Z,19.93
2022-08-19T17:44:19.083Z,19.89
2022-08-19T17:49:22.258Z,20.10
2022-08-19T17:54:25.440Z,20.23
2022-08-19T17:59:39.050Z,20.24
2022-08-19T18:04:45.509Z,20.28
2022-08-19T18:09:52.900Z,20.20
2022-08-19T18:14:59.246Z,20.18
2022-08-19T18:20:02.415Z,20.26
2022-08-19T18:25:08.810Z,20.05
2022-08-19T18:30:14.200Z,19.99
2022-08-19T18:35:20.744Z,20.02
2022-08-19T18:40:43.638Z,19.99
2022-08-19T18:46:07.235Z,19.94
2022-08-19T18:51:11.171Z,19.85
2022-08-19T18:56:16.890Z,19.67
2022-08-19T19:01:26.157Z,19.86
2022-08-19T19:06:35.908Z,19.86
2022-08-19T19:11:44.030Z,19.88
2022-08-19T19:16:48.582Z,19.80
2022-08-19T19:21:53.186Z,19.75
2022-08-19T19:26:57.583Z,19.74
2022-08-19T19:32:02.217Z,19.87
2022-08-19T19:37:05.438Z,19.86
2022-08-19T19:42:12.620Z,19.77
2022-08-19T19:47:25.726Z,19.67
2022-08-19T19:52:28.958Z,19.52
2022-08-19T19:57:32.075Z,19.40
2022-08-19T20:02:36.631Z,19.51
2022-08-19T20:07:53.942Z,19.53
2022-08-19T20:12:57.323Z,19.48
2022-08-19T20:18:02.459Z,19.51
2022-08-19T20:23:06.477Z,19.42
2022-08-19T20:28:10.772Z,19.33
2022-08-19T20:33:16.990Z,19.37
2022-08-19T20:38:20.084Z,19.51
2022-08-19T20:43:23.287Z,19.58
2022-08-19T20:48:27.909Z,19.61
2022-08-19T20:53:31.322Z,19.53
2022-08-19T20:58:35.726Z,19.59
2022-08-19T21:03:43.149Z,19.45
2022-08-19T21:08:47.030Z,19.20
2022-08-19T21:13:52.245Z,19.32
2022-08-19T21:18:57.204Z,19.41
2022-08-19T21:24:00.337Z,19.43
2022-08-19T21:29:03.452Z,19.49
2022-08-19T21:34:07.980Z,19.60
2022-08-19T21:39:11.151Z,19.51
2022-08-19T21:44:14.263Z,19.42
2022-08-19T21:49:19.760Z,19.47
2022-08-19T21:54:22.836Z,19.46
2022-08-19T21:59:26.049Z,19.34
2022-08-19T22:04:30.535Z,19.36
2022-08-19T22:09:33.696Z,19.41
2022-08-19T22:14:37.356Z,19.26
2022-08-19T22:19:41.862Z,19.37
2022-08-19T22:24:44.957Z,19.36
2022-08-19T22:29:48.099Z,19.44
2022-08-19T22:34:59.177Z,19.30
2022-08-19T22:40:05.475Z,19.39
2022-08-19T22:45:11.623Z,19.34
2022-08-19T22:50:16.087Z,19.34
2022-08-19T22:55:19.175Z,19.32
2022-08-19T23:00:24.607Z,19.34
2022-08-19T23:05:30.418Z,19.26
2022-08-19T23:10:34.633Z,19.26
2022-08-19T23:15:38.124Z,19.26
2022-08-19T23:20:44.802Z,19.15
2022-08-19T23:25:48.373Z,19.23
2022-08-19T23:30:53.749Z,19.28
2022-08-19T23:36:00.115Z,19.22
2022-08-19T23:41:05.690Z,19.24
2022-08-19T23:46:10.637Z,19.26
2022-08-19T23:51:17.613Z,19.17
2022-08-19T23:56:21.567Z,19.18
